createdAt,value
2018-07-23T00:00:19.194Z,12.40
2018-07-23T00:02:12.121Z,11.20
2018-07-23T00:03:12.040Z,11.20
2018-07-23T00:05:04.986Z,11.10
2018-07-23T00:06:04.907Z,10.70
2018-07-23T00:07:57.853Z,11.20
2018-07-23T00:08:57.731Z,10.90
2018-07-23T00:10:50.672Z,10.50
2018-07-23T00:11:50.580Z,11.10
2018-07-23T00:13:43.550Z,10.80
2018-07-23T00:14:43.431Z,11.10
2018-07-23T00:16:36.378Z,11.60
2018-07-23T00:17:36.287Z,11.40
2018-07-23T00:19:29.235Z,11.30
2018-07-23T00:20:29.138Z,11.70
2018-07-23T00:22:22.076Z,12.10
2018-07-23T00:23:21.989Z,11.40
2018-07-23T00:25:14.837Z,10.90
2018-07-23T00:26:14.751Z,11.20
2018-07-23T00:28:07.587Z,11.20
2018-07-23T00:29:07.523Z,12.00
2018-07-23T00:31:00.362Z,12.00
2018-07-23T00:32:00.240Z,11.70
2018-07-23T00:33:53.149Z,11.80
2018-07-23T00:34:53.004Z,11.90
2018-07-23T00:36:45.843Z,11.50
2018-07-23T00:37:45.730Z,11.50
2018-07-23T00:39:38.605Z,11.90
2018-07-23T00:40:38.507Z,11.30
2018-07-23T00:42:31.342Z,10.70
2018-07-23T00:43:31.234Z,10.50
2018-07-23T00:45:24.123Z,10.60
2018-07-23T00:46:23.992Z,10.70
2018-07-23T00:48:16.835Z,10.80
2018-07-23T00:49:16.732Z,11.00
2018-07-23T00:51:09.597Z,11.20
2018-07-23T00:52:09.482Z,11.10
2018-07-23T00:54:02.224Z,10.70
2018-07-23T00:55:02.147Z,10.40
2018-07-23T00:56:55.011Z,10.10
2018-07-23T00:57:54.873Z,9.70
2018-07-23T00:59:47.745Z,9.60
2018-07-23T01:00:47.627Z,9.50
2018-07-23T01:02:40.473Z,9.20
2018-07-23T01:03:40.405Z,9.30
2018-07-23T01:05:33.247Z,9.40
2018-07-23T01:06:33.145Z,9.40
2018-07-23T01:08:25.994Z,9.30
2018-07-23T01:09:25.895Z,8.90
2018-07-23T01:11:18.738Z,8.40
2018-07-23T01:12:18.637Z,8.50
2018-07-23T01:14:11.469Z,8.70
2018-07-23T01:15:11.380Z,8.80
2018-07-23T01:17:04.259Z,8.30
2018-07-23T01:18:04.137Z,8.50
2018-07-23T01:19:56.962Z,9.20
2018-07-23T01:20:56.908Z,8.90
2018-07-23T01:22:49.773Z,8.70
2018-07-23T01:23:49.599Z,8.60
2018-07-23T01:25:42.363Z,9.10
2018-07-23T01:26:42.282Z,8.60
2018-07-23T01:28:35.156Z,8.70
2018-07-23T01:29:35.049Z,8.70
2018-07-23T01:31:28.630Z,8.90
2018-07-23T01:32:27.960Z,8.70
2018-07-23T01:34:20.751Z,9.10
2018-07-23T01:35:20.644Z,9.30
2018-07-23T01:37:13.372Z,9.80
2018-07-23T01:38:13.283Z,9.20
2018-07-23T01:40:06.138Z,8.80
2018-07-23T01:41:06.041Z,8.80
2018-07-23T01:42:58.883Z,8.50
2018-07-23T01:43:58.817Z,8.40
2018-07-23T01:45:51.645Z,8.40
2018-07-23T01:46:51.518Z,8.40
2018-07-23T01:48:44.384Z,7.60
2018-07-23T01:49:44.269Z,7.80
2018-07-23T01:51:37.127Z,8.00
2018-07-23T01:52:37.031Z,7.70
2018-07-23T01:54:29.983Z,7.50
2018-07-23T01:55:29.907Z,7.50
2018-07-23T01:57:22.710Z,7.90
2018-07-23T01:58:22.615Z,7.80
2018-07-23T02:00:15.991Z,7.90
2018-07-23T02:01:15.897Z,7.80
2018-07-23T02:03:08.732Z,7.40
2018-07-23T02:04:08.631Z,7.80
2018-07-23T02:06:01.518Z,8.00
2018-07-23T02:07:01.408Z,7.90
2018-07-23T02:08:54.244Z,7.90
2018-07-23T02:09:54.137Z,8.10
2018-07-23T02:11:46.978Z,8.00
2018-07-23T02:12:46.874Z,8.20
2018-07-23T02:14:39.786Z,7.90
2018-07-23T02:15:39.636Z,7.40
2018-07-23T02:17:32.883Z,7.40
2018-07-23T02:18:32.788Z,7.20
2018-07-23T02:20:25.663Z,7.80
2018-07-23T02:21:25.550Z,7.70
2018-07-23T02:23:18.384Z,7.70
2018-07-23T02:24:18.321Z,7.40
2018-07-23T02:26:11.069Z,7.50
2018-07-23T02:27:10.961Z,7.40
2018-07-23T02:29:03.683Z,7.50
2018-07-23T02:30:03.586Z,7.60
2018-07-23T02:31:56.439Z,7.60
2018-07-23T02:32:56.330Z,7.00
2018-07-23T02:34:49.630Z,7.80
2018-07-23T02:35:50.107Z,7.50
2018-07-23T02:37:44.147Z,7.60
2018-07-23T02:38:42.325Z,7.70
2018-07-23T02:40:35.127Z,7.30
2018-07-23T02:41:35.037Z,7.80
2018-07-23T02:43:27.870Z,7.80
2018-07-23T02:44:27.741Z,7.60
2018-07-23T02:46:20.635Z,7.10
2018-07-23T02:47:20.491Z,7.50
2018-07-23T02:49:13.346Z,8.30
2018-07-23T02:50:13.239Z,7.70
2018-07-23T02:52:06.109Z,8.20
2018-07-23T02:53:06.054Z,8.10
2018-07-23T02:54:58.835Z,7.80
2018-07-23T02:55:58.744Z,7.60
2018-07-23T02:57:51.521Z,7.60
2018-07-23T02:58:51.393Z,7.70
2018-07-23T03:00:44.226Z,6.70
2018-07-23T03:01:44.139Z,7.00
2018-07-23T03:03:38.507Z,6.70
2018-07-23T03:04:37.912Z,6.90
2018-07-23T03:06:30.748Z,6.80
2018-07-23T03:07:30.661Z,7.10
2018-07-23T03:09:23.520Z,7.20
2018-07-23T03:10:23.415Z,7.60
2018-07-23T03:12:16.280Z,7.40
2018-07-23T03:13:16.158Z,7.90
2018-07-23T03:15:09.526Z,7.70
2018-07-23T03:16:08.918Z,7.60
2018-07-23T03:18:01.764Z,7.10
2018-07-23T03:19:01.663Z,7.60
2018-07-23T03:20:54.493Z,6.60
2018-07-23T03:21:54.565Z,7.00
2018-07-23T03:23:47.180Z,6.60
2018-07-23T03:24:47.057Z,7.00
2018-07-23T03:26:40.243Z,6.60
2018-07-23T03:27:39.807Z,7.00
2018-07-23T03:29:32.564Z,7.50
2018-07-23T03:30:32.448Z,7.60
2018-07-23T03:32:25.209Z,7.60
2018-07-23T03:33:25.121Z,7.10
2018-07-23T03:35:17.975Z,7.00
2018-07-23T03:36:17.849Z,6.90
2018-07-23T03:38:10.705Z,6.80
2018-07-23T03:39:10.598Z,6.40
2018-07-23T03:41:03.460Z,6.50
2018-07-23T03:42:03.347Z,6.70
2018-07-23T03:43:56.181Z,6.80
2018-07-23T03:44:56.129Z,7.20
2018-07-23T03:46:48.961Z,6.90
2018-07-23T03:47:48.845Z,7.10
2018-07-23T03:49:41.788Z,7.10
2018-07-23T03:50:41.613Z,7.40
2018-07-23T03:52:34.438Z,7.00
2018-07-23T03:53:34.341Z,6.70
2018-07-23T03:55:27.303Z,6.80
2018-07-23T03:56:27.202Z,6.70
2018-07-23T03:58:20.045Z,6.40
2018-07-23T03:59:19.964Z,6.40
2018-07-23T04:01:12.795Z,6.90
2018-07-23T04:02:12.692Z,7.70
2018-07-23T04:04:05.554Z,6.40
2018-07-23T04:05:05.445Z,6.70
2018-07-23T04:06:58.312Z,6.70
2018-07-23T04:07:58.208Z,7.20
2018-07-23T04:09:51.069Z,7.30
2018-07-23T04:10:51.035Z,7.20
2018-07-23T04:12:43.798Z,6.80
2018-07-23T04:13:43.690Z,6.80
2018-07-23T04:15:36.550Z,7.90
2018-07-23T04:16:36.437Z,7.40
2018-07-23T04:18:29.366Z,7.70
2018-07-23T04:19:29.195Z,7.80
2018-07-23T04:21:21.954Z,7.30
2018-07-23T04:22:21.856Z,6.90
2018-07-23T04:24:14.619Z,6.90
2018-07-23T04:25:14.484Z,7.30
2018-07-23T04:27:07.350Z,7.80
2018-07-23T04:28:07.148Z,7.40
2018-07-23T04:30:00.006Z,8.20
2018-07-23T04:30:59.902Z,7.80
2018-07-23T04:32:52.732Z,8.00
2018-07-23T04:33:52.637Z,8.30
2018-07-23T04:35:45.504Z,7.00
2018-07-23T04:36:45.381Z,6.90
2018-07-23T04:38:38.247Z,6.80
2018-07-23T04:39:38.132Z,6.90
2018-07-23T04:41:30.992Z,7.00
2018-07-23T04:42:30.878Z,7.00
2018-07-23T04:44:23.737Z,7.00
2018-07-23T04:45:23.661Z,7.40
2018-07-23T04:47:16.413Z,7.10
2018-07-23T04:48:16.291Z,7.00
2018-07-23T04:50:09.636Z,7.10
2018-07-23T04:51:09.557Z,6.50
2018-07-23T04:53:02.724Z,6.40
2018-07-23T04:54:02.618Z,7.10
2018-07-23T04:55:55.945Z,7.70
2018-07-23T04:56:55.867Z,7.30
2018-07-23T04:58:49.742Z,7.30
2018-07-23T04:59:49.641Z,7.30
2018-07-23T05:01:42.476Z,7.40
2018-07-23T05:02:42.383Z,7.20
2018-07-23T05:04:35.249Z,7.30
2018-07-23T05:05:35.147Z,7.30
2018-07-23T05:07:27.986Z,7.50
2018-07-23T05:08:27.886Z,6.90
2018-07-23T05:10:21.232Z,6.90
2018-07-23T05:11:21.141Z,7.50
2018-07-23T05:13:14.013Z,7.10
2018-07-23T05:14:13.893Z,7.10
2018-07-23T05:16:06.809Z,7.00
2018-07-23T05:17:06.653Z,7.00
2018-07-23T05:18:59.398Z,7.10
2018-07-23T05:19:59.295Z,7.00
2018-07-23T05:21:52.131Z,6.70
2018-07-23T05:22:52.184Z,7.10
2018-07-23T05:24:44.816Z,7.20
2018-07-23T05:25:44.692Z,6.90
2018-07-23T05:27:37.579Z,6.70
2018-07-23T05:28:37.447Z,6.80
2018-07-23T05:30:30.297Z,6.80
2018-07-23T05:31:30.190Z,6.70
2018-07-23T05:33:23.049Z,6.80
2018-07-23T05:34:22.939Z,6.40
2018-07-23T05:36:15.684Z,6.30
2018-07-23T05:37:15.708Z,6.30
2018-07-23T05:39:08.951Z,6.30
2018-07-23T05:40:08.845Z,6.60
2018-07-23T05:42:01.692Z,6.50
2018-07-23T05:43:01.608Z,6.40
2018-07-23T05:44:54.366Z,6.30
2018-07-23T05:45:54.237Z,6.20
2018-07-23T05:47:47.096Z,5.80
2018-07-23T05:48:47.005Z,5.80
2018-07-23T05:50:39.732Z,6.00
2018-07-23T05:51:39.646Z,5.90
2018-07-23T05:53:32.418Z,5.90
2018-07-23T05:54:32.286Z,6.00
2018-07-23T05:56:25.124Z,6.00
2018-07-23T05:57:25.034Z,5.80
2018-07-23T05:59:17.809Z,6.20
2018-07-23T06:00:17.696Z,6.30
2018-07-23T06:02:10.445Z,6.00
2018-07-23T06:03:10.349Z,6.10
2018-07-23T06:05:03.177Z,5.70
2018-07-23T06:06:03.077Z,6.10
2018-07-23T06:07:55.931Z,5.00
2018-07-23T06:08:55.830Z,5.60
2018-07-23T06:10:48.580Z,5.40
2018-07-23T06:11:48.479Z,5.60
2018-07-23T06:13:41.330Z,6.00
2018-07-23T06:14:41.227Z,6.10
2018-07-23T06:16:34.069Z,6.30
2018-07-23T06:17:33.979Z,6.40
2018-07-23T06:19:26.851Z,6.00
2018-07-23T06:20:26.741Z,5.60
2018-07-23T06:22:19.600Z,5.50
2018-07-23T06:23:19.505Z,5.70
2018-07-23T06:25:12.326Z,5.60
2018-07-23T06:26:12.218Z,5.90
2018-07-23T06:28:05.145Z,5.40
2018-07-23T06:29:04.978Z,6.10
2018-07-23T06:30:57.719Z,5.90
2018-07-23T06:31:57.660Z,5.90
2018-07-23T06:33:50.493Z,5.90
2018-07-23T06:34:50.375Z,5.60
2018-07-23T06:36:43.229Z,5.70
2018-07-23T06:37:43.166Z,6.30
2018-07-23T06:39:36.093Z,5.80
2018-07-23T06:40:35.870Z,5.70
2018-07-23T06:42:28.724Z,6.30
2018-07-23T06:43:28.625Z,5.80
2018-07-23T06:45:21.483Z,5.90
2018-07-23T06:46:21.383Z,5.80
2018-07-23T06:48:14.237Z,5.80
2018-07-23T06:49:14.134Z,6.10
2018-07-23T06:51:06.879Z,5.80
2018-07-23T06:52:06.766Z,6.10
2018-07-23T06:53:59.628Z,6.30
2018-07-23T06:54:59.511Z,5.90
2018-07-23T06:56:52.393Z,6.00
2018-07-23T06:57:52.276Z,5.90
2018-07-23T06:59:45.134Z,6.10
2018-07-23T07:00:45.019Z,5.80
2018-07-23T07:02:37.857Z,5.90
2018-07-23T07:03:37.760Z,5.40
2018-07-23T07:05:30.533Z,6.20
2018-07-23T07:06:30.492Z,6.10
2018-07-23T07:08:23.272Z,6.40
2018-07-23T07:09:23.169Z,6.20
2018-07-23T07:11:16.028Z,5.90
2018-07-23T07:12:15.908Z,6.00
2018-07-23T07:14:08.805Z,5.80
2018-07-23T07:15:08.700Z,6.00
2018-07-23T07:17:02.068Z,6.00
2018-07-23T07:18:01.920Z,6.10
2018-07-23T07:19:54.792Z,6.00
2018-07-23T07:20:54.716Z,6.10
2018-07-23T07:22:49.386Z,6.20
2018-07-23T07:23:49.140Z,6.00
2018-07-23T07:25:42.864Z,6.70
2018-07-23T07:26:42.757Z,6.40
2018-07-23T07:28:35.576Z,6.20
2018-07-23T07:29:35.489Z,6.30
2018-07-23T07:31:28.370Z,6.10
2018-07-23T07:32:28.228Z,6.20
2018-07-23T07:34:21.084Z,6.10
2018-07-23T07:35:21.021Z,5.80
2018-07-23T07:37:13.836Z,5.90
2018-07-23T07:38:13.740Z,6.30
2018-07-23T07:40:06.590Z,6.40
2018-07-23T07:41:06.484Z,6.60
2018-07-23T07:42:59.350Z,6.20
2018-07-23T07:43:59.244Z,6.40
2018-07-23T07:45:52.088Z,5.90
2018-07-23T07:46:51.993Z,6.10
2018-07-23T07:48:44.812Z,6.00
2018-07-23T07:49:44.786Z,6.40
2018-07-23T07:51:37.611Z,6.10
2018-07-23T07:52:37.482Z,5.80
2018-07-23T07:54:30.323Z,6.60
2018-07-23T07:55:30.237Z,6.90
2018-07-23T07:57:23.133Z,6.30
2018-07-23T07:58:22.987Z,6.40
2018-07-23T08:00:15.830Z,6.20
2018-07-23T08:01:15.738Z,6.50
2018-07-23T08:03:09.501Z,6.60
2018-07-23T08:04:09.410Z,6.60
2018-07-23T08:06:02.307Z,6.90
2018-07-23T08:07:02.147Z,6.30
2018-07-23T08:08:55.011Z,6.80
2018-07-23T08:09:54.921Z,6.50
2018-07-23T08:11:47.749Z,6.30
2018-07-23T08:12:47.644Z,6.50
2018-07-23T08:14:40.496Z,6.50
2018-07-23T08:15:40.398Z,6.60
2018-07-23T08:17:33.257Z,6.60
2018-07-23T08:18:33.156Z,6.30
2018-07-23T08:20:26.008Z,7.30
2018-07-23T08:21:25.987Z,7.20
2018-07-23T08:23:18.801Z,7.00
2018-07-23T08:24:18.654Z,7.20
2018-07-23T08:26:11.499Z,7.10
2018-07-23T08:27:11.392Z,7.20
2018-07-23T08:29:04.236Z,6.90
2018-07-23T08:30:04.142Z,7.20
2018-07-23T08:31:57.118Z,7.80
2018-07-23T08:32:56.905Z,8.00
2018-07-23T08:34:49.754Z,7.50
2018-07-23T08:35:49.654Z,7.60
2018-07-23T08:37:42.496Z,8.10
2018-07-23T08:38:42.440Z,8.70
2018-07-23T08:40:35.235Z,8.80
2018-07-23T08:41:35.142Z,8.70
2018-07-23T08:43:28.022Z,8.30
2018-07-23T08:44:27.968Z,7.80
2018-07-23T08:46:20.762Z,7.10
2018-07-23T08:47:20.653Z,7.30
2018-07-23T08:49:13.494Z,6.90
2018-07-23T08:50:13.415Z,7.30
2018-07-23T08:52:06.249Z,6.60
2018-07-23T08:53:06.147Z,7.00
2018-07-23T08:54:58.979Z,7.00
2018-07-23T08:55:58.897Z,7.70
2018-07-23T08:57:51.749Z,7.20
2018-07-23T08:58:51.645Z,7.30
2018-07-23T09:00:44.549Z,7.10
2018-07-23T09:01:44.408Z,7.20
2018-07-23T09:03:37.256Z,7.30
2018-07-23T09:04:37.148Z,7.20
2018-07-23T09:06:29.976Z,8.50
2018-07-23T09:07:29.900Z,9.60
2018-07-23T09:09:22.790Z,6.80
2018-07-23T09:10:22.643Z,7.00
2018-07-23T09:12:15.470Z,7.90
2018-07-23T09:13:15.394Z,7.10
2018-07-23T09:15:08.243Z,6.90
2018-07-23T09:16:08.142Z,6.40
2018-07-23T09:18:00.988Z,6.90
2018-07-23T09:19:00.885Z,7.20
2018-07-23T09:20:53.765Z,7.20
2018-07-23T09:21:53.663Z,7.60
2018-07-23T09:23:46.517Z,7.30
2018-07-23T09:24:46.399Z,6.70
2018-07-23T09:26:39.265Z,6.40
2018-07-23T09:27:39.154Z,6.70
2018-07-23T09:29:31.995Z,7.00
2018-07-23T09:30:31.880Z,6.50
2018-07-23T09:32:24.720Z,7.30
2018-07-23T09:33:24.665Z,7.50
2018-07-23T09:35:17.496Z,7.30
2018-07-23T09:36:17.381Z,7.10
2018-07-23T09:38:10.224Z,6.40
2018-07-23T09:39:10.140Z,6.70
2018-07-23T09:41:02.999Z,6.70
2018-07-23T09:42:02.901Z,6.40
2018-07-23T09:43:55.731Z,6.50
2018-07-23T09:44:55.652Z,6.60
2018-07-23T09:46:48.523Z,7.00
2018-07-23T09:47:48.388Z,6.90
2018-07-23T09:49:41.226Z,7.40
2018-07-23T09:50:41.152Z,7.30
2018-07-23T09:52:34.022Z,7.60
2018-07-23T09:53:33.901Z,7.00
2018-07-23T09:55:27.789Z,7.20
2018-07-23T09:56:27.680Z,7.00
2018-07-23T09:58:20.502Z,7.40
2018-07-23T09:59:20.408Z,7.20
2018-07-23T10:01:13.264Z,7.10
2018-07-23T10:02:13.180Z,7.40
2018-07-23T10:04:06.121Z,7.00
2018-07-23T10:05:05.901Z,7.10
2018-07-23T10:06:58.785Z,7.00
2018-07-23T10:07:58.651Z,6.80
2018-07-23T10:09:51.492Z,7.10
2018-07-23T10:10:51.453Z,7.00
2018-07-23T10:12:44.261Z,6.90
2018-07-23T10:13:44.164Z,7.00
2018-07-23T10:15:37.023Z,7.40
2018-07-23T10:16:36.922Z,7.40
2018-07-23T10:18:29.773Z,7.00
2018-07-23T10:19:29.665Z,7.10
2018-07-23T10:21:22.527Z,7.00
2018-07-23T10:22:22.403Z,6.40
2018-07-23T10:24:15.251Z,6.60
2018-07-23T10:25:15.166Z,6.90
2018-07-23T10:27:08.011Z,7.30
2018-07-23T10:28:07.922Z,6.60
2018-07-23T10:30:00.781Z,7.00
2018-07-23T10:31:00.687Z,6.70
2018-07-23T10:32:53.568Z,6.80
2018-07-23T10:33:53.422Z,6.60
2018-07-23T10:35:46.262Z,6.20
2018-07-23T10:36:46.164Z,6.90
2018-07-23T10:38:39.003Z,6.70
2018-07-23T10:39:38.915Z,6.30
2018-07-23T10:41:31.752Z,6.50
2018-07-23T10:42:31.655Z,6.10
2018-07-23T10:44:24.495Z,6.70
2018-07-23T10:45:24.413Z,6.40
2018-07-23T10:47:17.251Z,5.90
2018-07-23T10:48:17.154Z,6.50
2018-07-23T10:50:10.012Z,6.30
2018-07-23T10:51:09.903Z,6.30
2018-07-23T10:53:02.749Z,6.50
2018-07-23T10:54:02.681Z,6.30
2018-07-23T10:55:55.530Z,5.90
2018-07-23T10:56:55.399Z,6.20
2018-07-23T10:58:48.233Z,7.60
2018-07-23T10:59:48.152Z,7.20
2018-07-23T11:01:40.996Z,6.20
2018-07-23T11:02:40.901Z,7.00
2018-07-23T11:04:33.741Z,6.20
2018-07-23T11:05:33.670Z,6.00
2018-07-23T11:07:26.551Z,6.00
2018-07-23T11:08:26.403Z,6.00
2018-07-23T11:10:19.259Z,6.50
2018-07-23T11:11:19.151Z,7.30
2018-07-23T11:13:12.005Z,6.80
2018-07-23T11:14:11.902Z,6.30
2018-07-23T11:16:04.742Z,6.60
2018-07-23T11:17:04.651Z,6.30
2018-07-23T11:18:57.499Z,7.60
2018-07-23T11:19:57.415Z,7.60
2018-07-23T11:21:50.249Z,7.80
2018-07-23T11:22:50.156Z,7.70
2018-07-23T11:24:45.543Z,6.80
2018-07-23T11:25:42.908Z,6.60
2018-07-23T11:27:35.748Z,6.40
2018-07-23T11:28:35.660Z,6.60
2018-07-23T11:30:28.506Z,6.70
2018-07-23T11:31:28.415Z,6.60
2018-07-23T11:33:21.293Z,6.00
2018-07-23T11:34:21.209Z,5.90
2018-07-23T11:36:14.575Z,5.60
2018-07-23T11:37:14.469Z,6.20
2018-07-23T11:39:07.788Z,6.00
2018-07-23T11:40:07.782Z,6.50
2018-07-23T11:42:00.523Z,6.60
2018-07-23T11:43:00.423Z,7.40
2018-07-23T11:44:53.280Z,7.10
2018-07-23T11:45:53.188Z,6.60
2018-07-23T11:47:46.024Z,5.70
2018-07-23T11:48:45.924Z,5.70
2018-07-23T11:50:38.776Z,6.60
2018-07-23T11:51:38.688Z,6.50
2018-07-23T11:53:31.600Z,5.70
2018-07-23T11:54:31.419Z,5.90
2018-07-23T11:56:24.321Z,6.00
2018-07-23T11:57:24.183Z,5.90
2018-07-23T11:59:17.044Z,5.30
2018-07-23T12:00:16.924Z,5.40
2018-07-23T12:02:12.949Z,5.20
2018-07-23T12:03:12.724Z,5.60
2018-07-23T12:05:06.546Z,5.50
2018-07-23T12:06:06.438Z,5.30
2018-07-23T12:07:59.262Z,4.70
2018-07-23T12:08:59.158Z,4.50
2018-07-23T12:10:52.545Z,5.00
2018-07-23T12:11:52.464Z,5.10
2018-07-23T12:13:45.289Z,5.60
2018-07-23T12:14:45.184Z,5.80
2018-07-23T12:16:38.017Z,5.20
2018-07-23T12:17:37.965Z,5.00
2018-07-23T12:19:30.806Z,4.70
2018-07-23T12:20:30.673Z,4.70
2018-07-23T12:22:24.339Z,5.50
2018-07-23T12:23:24.326Z,5.20
2018-07-23T12:25:17.100Z,4.20
2018-07-23T12:26:16.989Z,4.20
2018-07-23T12:28:09.852Z,4.30
2018-07-23T12:29:09.737Z,4.70
2018-07-23T12:31:02.599Z,4.40
2018-07-23T12:32:02.485Z,4.50
2018-07-23T12:33:55.340Z,4.00
2018-07-23T12:34:55.256Z,4.00
2018-07-23T12:36:48.079Z,4.00
2018-07-23T12:37:47.987Z,3.80
2018-07-23T12:39:40.913Z,3.80
2018-07-23T12:40:40.737Z,4.10
2018-07-23T12:42:33.587Z,4.10
2018-07-23T12:43:33.484Z,3.60
2018-07-23T12:45:26.332Z,4.00
2018-07-23T12:46:26.279Z,3.90
2018-07-23T12:48:19.119Z,3.90
2018-07-23T12:49:19.001Z,3.80
2018-07-23T12:51:11.819Z,3.80
2018-07-23T12:52:11.741Z,4.10
2018-07-23T12:54:04.589Z,3.90
2018-07-23T12:55:04.488Z,3.80
2018-07-23T12:56:57.316Z,3.90
2018-07-23T12:57:57.272Z,3.70
2018-07-23T12:59:50.112Z,3.80
2018-07-23T13:00:49.985Z,4.00
2018-07-23T13:02:42.831Z,4.00
2018-07-23T13:03:42.730Z,3.80
2018-07-23T13:05:35.609Z,3.80
2018-07-23T13:06:35.562Z,4.10
2018-07-23T13:08:28.331Z,4.20
2018-07-23T13:09:28.237Z,3.90
2018-07-23T13:11:21.061Z,4.00
2018-07-23T13:12:20.999Z,3.90
2018-07-23T13:14:14.375Z,3.70
2018-07-23T13:15:13.736Z,3.70
2018-07-23T13:17:07.073Z,3.40
2018-07-23T13:18:06.995Z,3.60
2018-07-23T13:19:59.865Z,3.40
2018-07-23T13:20:59.742Z,3.70
2018-07-23T13:22:52.591Z,3.60
2018-07-23T13:23:52.494Z,3.50
2018-07-23T13:25:45.406Z,3.40
2018-07-23T13:26:45.383Z,3.60
2018-07-23T13:28:38.089Z,4.30
2018-07-23T13:29:37.999Z,3.80
2018-07-23T13:31:30.853Z,3.60
2018-07-23T13:32:30.755Z,3.50
2018-07-23T13:34:23.615Z,3.90
2018-07-23T13:35:23.499Z,3.40
2018-07-23T13:37:16.338Z,3.70
2018-07-23T13:38:16.339Z,3.60
2018-07-23T13:40:09.121Z,3.60
2018-07-23T13:41:08.990Z,3.50
2018-07-23T13:43:01.828Z,3.40
2018-07-23T13:44:01.741Z,3.60
2018-07-23T13:45:54.617Z,3.60
2018-07-23T13:46:54.492Z,3.70
2018-07-23T13:48:47.339Z,3.70
2018-07-23T13:49:47.242Z,3.80
2018-07-23T13:51:40.073Z,3.50
2018-07-23T13:52:39.992Z,4.00
2018-07-23T13:54:32.850Z,3.70
2018-07-23T13:55:32.744Z,3.80
2018-07-23T13:57:25.569Z,3.80
2018-07-23T13:58:25.486Z,3.50
2018-07-23T14:00:18.338Z,3.90
2018-07-23T14:01:18.283Z,4.10
2018-07-23T14:03:11.069Z,3.70
2018-07-23T14:04:10.982Z,3.70
2018-07-23T14:06:04.375Z,3.90
2018-07-23T14:07:04.245Z,3.90
2018-07-23T14:08:57.102Z,4.10
2018-07-23T14:09:56.999Z,3.90
2018-07-23T14:11:50.057Z,3.80
2018-07-23T14:12:49.800Z,3.80
2018-07-23T14:14:43.110Z,3.80
2018-07-23T14:15:43.018Z,3.50
2018-07-23T14:17:35.838Z,3.70
2018-07-23T14:18:35.755Z,3.60
2018-07-23T14:20:29.208Z,4.00
2018-07-23T14:21:28.613Z,3.80
2018-07-23T14:23:21.374Z,3.90
2018-07-23T14:24:21.317Z,3.60
2018-07-23T14:26:14.140Z,3.80
2018-07-23T14:27:14.016Z,3.80
2018-07-23T14:29:06.855Z,3.60
2018-07-23T14:30:06.844Z,3.70
2018-07-23T14:31:59.605Z,3.60
2018-07-23T14:32:59.517Z,3.70
2018-07-23T14:34:52.360Z,3.80
2018-07-23T14:35:52.332Z,3.60
2018-07-23T14:37:45.112Z,3.70
2018-07-23T14:38:45.004Z,3.70
2018-07-23T14:40:37.856Z,4.10
2018-07-23T14:41:37.765Z,3.90
2018-07-23T14:43:30.606Z,3.60
2018-07-23T14:44:30.506Z,3.60
2018-07-23T14:46:23.432Z,4.10
2018-07-23T14:47:23.257Z,3.70
2018-07-23T14:49:16.105Z,3.70
2018-07-23T14:50:16.002Z,4.30
2018-07-23T14:52:09.374Z,4.00
2018-07-23T14:53:08.863Z,3.70
2018-07-23T14:55:01.714Z,4.00
2018-07-23T14:56:01.606Z,4.00
2018-07-23T14:57:54.452Z,3.90
2018-07-23T14:58:54.357Z,3.50
2018-07-23T15:00:47.201Z,4.00
2018-07-23T15:01:47.122Z,3.80
2018-07-23T15:03:39.963Z,3.80
2018-07-23T15:04:39.857Z,3.80
2018-07-23T15:06:32.682Z,4.00
2018-07-23T15:07:32.610Z,4.10
2018-07-23T15:09:25.452Z,3.80
2018-07-23T15:10:25.353Z,3.80
2018-07-23T15:12:18.189Z,3.80
2018-07-23T15:13:18.121Z,3.80
2018-07-23T15:15:10.947Z,3.70
2018-07-23T15:16:10.878Z,3.80
2018-07-23T15:18:03.722Z,4.10
2018-07-23T15:19:03.600Z,3.90
2018-07-23T15:20:56.477Z,3.90
2018-07-23T15:21:56.407Z,3.80
2018-07-23T15:23:49.210Z,3.80
2018-07-23T15:24:49.114Z,3.60
2018-07-23T15:26:41.957Z,3.90
2018-07-23T15:27:41.918Z,3.70
2018-07-23T15:29:34.720Z,4.00
2018-07-23T15:30:34.600Z,3.80
2018-07-23T15:32:27.433Z,4.30
2018-07-23T15:33:27.355Z,4.50
2018-07-23T15:35:20.215Z,4.20
2018-07-23T15:36:20.102Z,4.00
2018-07-23T15:38:12.935Z,4.10
2018-07-23T15:39:12.859Z,3.90
2018-07-23T15:41:06.122Z,3.80
2018-07-23T15:42:06.156Z,4.00
2018-07-23T15:43:58.968Z,3.50
2018-07-23T15:44:58.948Z,3.70
2018-07-23T15:46:51.618Z,3.60
2018-07-23T15:47:51.505Z,3.70
2018-07-23T15:49:44.367Z,3.60
2018-07-23T15:50:44.253Z,3.40
2018-07-23T15:52:37.092Z,3.70
2018-07-23T15:53:37.020Z,3.70
2018-07-23T15:55:29.871Z,3.20
2018-07-23T15:56:29.755Z,3.40
2018-07-23T15:58:22.616Z,3.40
2018-07-23T15:59:22.518Z,3.40
2018-07-23T16:01:15.350Z,3.40
2018-07-23T16:02:15.264Z,3.30
2018-07-23T16:04:08.104Z,3.80
2018-07-23T16:05:08.004Z,3.30
2018-07-23T16:07:00.842Z,3.30
2018-07-23T16:08:00.766Z,3.40
2018-07-23T16:09:53.602Z,3.50
2018-07-23T16:10:53.558Z,3.30
2018-07-23T16:12:46.355Z,3.00
2018-07-23T16:13:46.273Z,3.50
2018-07-23T16:15:39.100Z,3.40
2018-07-23T16:16:39.062Z,3.70
2018-07-23T16:18:31.862Z,3.30
2018-07-23T16:19:31.772Z,3.00
2018-07-23T16:21:24.626Z,3.30
2018-07-23T16:22:24.527Z,3.40
2018-07-23T16:24:17.351Z,3.30
2018-07-23T16:25:17.280Z,3.40
2018-07-23T16:27:10.083Z,3.40
2018-07-23T16:28:10.048Z,3.40
2018-07-23T16:30:02.876Z,3.50
2018-07-23T16:31:02.752Z,3.40
2018-07-23T16:32:55.588Z,3.70
2018-07-23T16:33:55.500Z,3.60
2018-07-23T16:35:48.365Z,3.20
2018-07-23T16:36:48.298Z,3.40
2018-07-23T16:38:41.080Z,3.50
2018-07-23T16:39:40.992Z,3.50
2018-07-23T16:41:33.888Z,3.50
2018-07-23T16:42:33.757Z,3.30
2018-07-23T16:44:26.622Z,3.40
2018-07-23T16:45:26.514Z,3.30
2018-07-23T16:47:19.340Z,3.50
2018-07-23T16:48:19.254Z,3.20
2018-07-23T16:50:12.100Z,3.20
2018-07-23T16:51:12.015Z,3.50
2018-07-23T16:53:04.841Z,3.30
2018-07-23T16:54:04.762Z,3.40
2018-07-23T16:55:57.639Z,3.10
2018-07-23T16:56:57.503Z,3.00
2018-07-23T16:58:50.325Z,3.10
2018-07-23T16:59:50.287Z,3.00
2018-07-23T17:01:43.100Z,3.30
2018-07-23T17:02:43.029Z,3.30
2018-07-23T17:04:35.839Z,3.30
2018-07-23T17:05:35.762Z,3.30
2018-07-23T17:07:29.090Z,3.20
2018-07-23T17:08:29.027Z,3.20
2018-07-23T17:10:21.848Z,3.20
2018-07-23T17:11:21.760Z,3.00
2018-07-23T17:13:15.155Z,3.20
2018-07-23T17:14:15.033Z,3.20
2018-07-23T17:16:07.890Z,2.90
2018-07-23T17:17:07.895Z,3.00
2018-07-23T17:19:00.614Z,3.20
2018-07-23T17:20:00.523Z,3.00
2018-07-23T17:21:53.391Z,3.10
2018-07-23T17:22:53.289Z,2.90
2018-07-23T17:24:46.121Z,3.20
2018-07-23T17:25:46.020Z,3.10
2018-07-23T17:27:39.051Z,2.90
2018-07-23T17:28:38.989Z,2.90
2018-07-23T17:30:31.898Z,2.90
2018-07-23T17:31:31.999Z,2.70
2018-07-23T17:33:24.778Z,2.90
2018-07-23T17:34:24.572Z,3.00
2018-07-23T17:36:17.537Z,3.20
2018-07-23T17:37:17.436Z,2.90
2018-07-23T17:39:10.299Z,3.00
2018-07-23T17:40:10.177Z,2.80
2018-07-23T17:42:03.027Z,2.80
2018-07-23T17:43:02.927Z,2.90
2018-07-23T17:44:55.867Z,2.80
2018-07-23T17:45:55.684Z,2.90
2018-07-23T17:47:48.535Z,2.90
2018-07-23T17:48:48.433Z,2.90
2018-07-23T17:50:41.273Z,2.80
2018-07-23T17:51:41.178Z,3.00
2018-07-23T17:53:34.001Z,3.00
2018-07-23T17:54:33.937Z,3.00
2018-07-23T17:56:26.772Z,3.00
2018-07-23T17:57:26.681Z,3.20
2018-07-23T17:59:19.606Z,3.30
2018-07-23T18:00:19.541Z,3.00
2018-07-23T18:02:12.365Z,3.00
2018-07-23T18:03:12.345Z,3.20
2018-07-23T18:05:05.121Z,3.30
2018-07-23T18:06:05.121Z,3.00
2018-07-23T18:07:57.953Z,2.90
2018-07-23T18:08:57.883Z,2.90
2018-07-23T18:10:50.794Z,3.40
2018-07-23T18:11:50.640Z,3.30
2018-07-23T18:13:43.556Z,3.40
2018-07-23T18:14:43.495Z,3.30
2018-07-23T18:16:36.350Z,3.30
2018-07-23T18:17:36.231Z,3.20
2018-07-23T18:19:29.115Z,3.00
2018-07-23T18:20:29.014Z,3.20
2018-07-23T18:22:21.929Z,3.30
2018-07-23T18:23:21.833Z,3.30
2018-07-23T18:25:14.827Z,3.20
2018-07-23T18:26:14.675Z,3.50
2018-07-23T18:28:08.148Z,3.50
2018-07-23T18:29:08.039Z,3.20
2018-07-23T18:31:00.901Z,3.70
2018-07-23T18:32:00.805Z,3.30
2018-07-23T18:33:53.754Z,3.20
2018-07-23T18:34:53.637Z,3.30
2018-07-23T18:36:46.521Z,3.40
2018-07-23T18:37:46.488Z,3.30
2018-07-23T18:39:39.230Z,3.30
2018-07-23T18:40:39.142Z,3.40
2018-07-23T18:42:32.185Z,3.40
2018-07-23T18:43:31.890Z,3.10
2018-07-23T18:45:24.720Z,3.80
2018-07-23T18:46:24.651Z,3.30
2018-07-23T18:48:17.623Z,3.50
2018-07-23T18:49:17.496Z,3.60
2018-07-23T18:51:10.334Z,3.70
2018-07-23T18:52:11.143Z,3.40
2018-07-23T18:54:03.068Z,3.30
2018-07-23T18:55:02.991Z,3.60
2018-07-23T18:56:55.844Z,3.70
2018-07-23T18:57:55.781Z,3.80
2018-07-23T18:59:48.637Z,3.70
2018-07-23T19:00:48.505Z,4.00
2018-07-23T19:02:41.398Z,3.90
2018-07-23T19:03:41.237Z,3.70
2018-07-23T19:05:34.064Z,4.30
2018-07-23T19:06:33.987Z,4.20
2018-07-23T19:08:26.867Z,4.20